sensor_id;sensor_type;location;lat;lon;timestamp;P1;durP1;ratioP1;P2;durP2;ratioP2
34876;SDS011;21086;44.780;17.194;2024-02-21T00:01:58;49.22;;;22.95;;
34876;SDS011;21086;44.780;17.194;2024-02-21T00:04:25;33.80;;;18.20;;
34876;SDS011;21086;44.780;17.194;2024-02-21T00:06:52;32.67;;;18.48;;
34876;SDS011;21086;44.780;17.194;2024-02-21T00:09:19;29.80;;;16.90;;
34876;SDS011;21086;44.780;17.194;2024-02-21T00:11:46;30.42;;;16.70;;
34876;SDS011;21086;44.780;17.194;2024-02-21T00:14:17;29.27;;;15.55;;
34876;SDS011;21086;44.780;17.194;2024-02-21T00:16:44;32.63;;;16.05;;
34876;SDS011;21086;44.780;17.194;2024-02-21T00:19:14;29.40;;;17.13;;
34876;SDS011;21086;44.780;17.194;2024-02-21T00:21:43;33.17;;;17.02;;
34876;SDS011;21086;44.780;17.194;2024-02-21T00:24:10;30.50;;;15.43;;
34876;SDS011;21086;44.780;17.194;2024-02-21T00:26:37;27.85;;;15.35;;
34876;SDS011;21086;44.780;17.194;2024-02-21T00:29:05;23.65;;;14.15;;
34876;SDS011;21086;44.780;17.194;2024-02-21T00:31:37;25.83;;;14.63;;
34876;SDS011;21086;44.780;17.194;2024-02-21T00:34:07;26.23;;;14.18;;
34876;SDS011;21086;44.780;17.194;2024-02-21T00:36:34;25.52;;;13.95;;
34876;SDS011;21086;44.780;17.194;2024-02-21T00:39:01;24.23;;;13.50;;
34876;SDS011;21086;44.780;17.194;2024-02-21T00:41:29;30.85;;;15.05;;
34876;SDS011;21086;44.780;17.194;2024-02-21T00:43:56;26.00;;;14.38;;
34876;SDS011;21086;44.780;17.194;2024-02-21T00:46:23;26.50;;;13.23;;
34876;SDS011;21086;44.780;17.194;2024-02-21T00:48:50;29.48;;;14.45;;
34876;SDS011;21086;44.780;17.194;2024-02-21T00:51:17;25.00;;;14.10;;
34876;SDS011;21086;44.780;17.194;2024-02-21T00:53:44;23.35;;;12.35;;
34876;SDS011;21086;44.780;17.194;2024-02-21T00:56:11;23.52;;;13.27;;
34876;SDS011;21086;44.780;17.194;2024-02-21T00:58:38;23.15;;;13.23;;
34876;SDS011;21086;44.780;17.194;2024-02-21T01:01:05;22.90;;;12.02;;
34876;SDS011;21086;44.780;17.194;2024-02-21T01:03:32;18.73;;;11.13;;
34876;SDS011;21086;44.780;17.194;2024-02-21T01:05:59;19.23;;;11.80;;
34876;SDS011;21086;44.780;17.194;2024-02-21T01:08:26;22.27;;;11.68;;
34876;SDS011;21086;44.780;17.194;2024-02-21T01:10:53;20.85;;;11.70;;
34876;SDS011;21086;44.780;17.194;2024-02-21T01:13:20;22.30;;;11.57;;
34876;SDS011;21086;44.780;17.194;2024-02-21T01:15:47;22.08;;;12.25;;
34876;SDS011;21086;44.780;17.194;2024-02-21T01:18:14;20.70;;;12.55;;
34876;SDS011;21086;44.780;17.194;2024-02-21T01:20:41;20.33;;;11.68;;
34876;SDS011;21086;44.780;17.194;2024-02-21T01:23:08;18.63;;;11.43;;
34876;SDS011;21086;44.780;17.194;2024-02-21T01:25:35;19.10;;;11.30;;
34876;SDS011;21086;44.780;17.194;2024-02-21T01:28:02;19.10;;;10.85;;
34876;SDS011;21086;44.780;17.194;2024-02-21T01:30:30;20.08;;;10.98;;
34876;SDS011;21086;44.780;17.194;2024-02-21T01:32:57;24.15;;;12.10;;
34876;SDS011;21086;44.780;17.194;2024-02-21T01:35:24;26.95;;;14.02;;
34876;SDS011;21086;44.780;17.194;2024-02-21T01:37:51;24.58;;;12.88;;
34876;SDS011;21086;44.780;17.194;2024-02-21T01:40:18;20.98;;;12.52;;
34876;SDS011;21086;44.780;17.194;2024-02-21T01:42:45;23.00;;;14.05;;
34876;SDS011;21086;44.780;17.194;2024-02-21T01:45:14;24.25;;;12.85;;
34876;SDS011;21086;44.780;17.194;2024-02-21T01:47:44;23.48;;;12.55;;
34876;SDS011;21086;44.780;17.194;2024-02-21T01:50:11;20.30;;;11.95;;
34876;SDS011;21086;44.780;17.194;2024-02-21T01:52:42;25.63;;;11.35;;
34876;SDS011;21086;44.780;17.194;2024-02-21T01:55:12;21.83;;;10.82;;
34876;SDS011;21086;44.780;17.194;2024-02-21T01:57:41;18.38;;;10.63;;
34876;SDS011;21086;44.780;17.194;2024-02-21T02:00:11;17.33;;;10.80;;
34876;SDS011;21086;44.780;17.194;2024-02-21T02:02:40;19.40;;;9.80;;
34876;SDS011;21086;44.780;17.194;2024-02-21T02:05:08;19.48;;;10.07;;
34876;SDS011;21086;44.780;17.194;2024-02-21T02:07:36;21.42;;;10.25;;
34876;SDS011;21086;44.780;17.194;2024-02-21T02:10:04;18.75;;;9.13;;
34876;SDS011;21086;44.780;17.194;2024-02-21T02:12:31;17.55;;;9.82;;
34876;SDS011;21086;44.780;17.194;2024-02-21T02:15:02;16.30;;;9.05;;
34876;SDS011;21086;44.780;17.194;2024-02-21T02:17:32;16.45;;;9.32;;
34876;SDS011;21086;44.780;17.194;2024-02-21T02:19:59;13.73;;;8.32;;
34876;SDS011;21086;44.780;17.194;2024-02-21T02:22:30;14.70;;;8.70;;
34876;SDS011;21086;44.780;17.194;2024-02-21T02:25:01;13.70;;;8.32;;
34876;SDS011;21086;44.780;17.194;2024-02-21T02:27:28;17.90;;;9.18;;
34876;SDS011;21086;44.780;17.194;2024-02-21T02:29:55;15.35;;;9.27;;
34876;SDS011;21086;44.780;17.194;2024-02-21T02:32:22;15.27;;;8.40;;
34876;SDS011;21086;44.780;17.194;2024-02-21T02:34:49;15.90;;;9.50;;
34876;SDS011;21086;44.780;17.194;2024-02-21T02:37:16;18.67;;;9.02;;
34876;SDS011;21086;44.780;17.194;2024-02-21T02:39:43;19.90;;;9.40;;
34876;SDS011;21086;44.780;17.194;2024-02-21T02:42:10;14.93;;;9.63;;
34876;SDS011;21086;44.780;17.194;2024-02-21T02:44:37;21.08;;;10.38;;
34876;SDS011;21086;44.780;17.194;2024-02-21T02:47:04;19.73;;;10.43;;
34876;SDS011;21086;44.780;17.194;2024-02-21T02:49:31;19.55;;;11.32;;
34876;SDS011;21086;44.780;17.194;2024-02-21T02:51:58;19.05;;;10.23;;
34876;SDS011;21086;44.780;17.194;2024-02-21T02:54:25;12.70;;;7.18;;
34876;SDS011;21086;44.780;17.194;2024-02-21T02:56:52;13.25;;;7.60;;
34876;SDS011;21086;44.780;17.194;2024-02-21T02:59:19;12.65;;;7.43;;
34876;SDS011;21086;44.780;17.194;2024-02-21T03:01:46;14.30;;;7.47;;
34876;SDS011;21086;44.780;17.194;2024-02-21T03:04:13;12.82;;;7.68;;
34876;SDS011;21086;44.780;17.194;2024-02-21T03:06:40;13.50;;;7.53;;
34876;SDS011;21086;44.780;17.194;2024-02-21T03:09:07;14.05;;;7.90;;
34876;SDS011;21086;44.780;17.194;2024-02-21T03:11:35;13.90;;;7.20;;
34876;SDS011;21086;44.780;17.194;2024-02-21T03:14:04;15.18;;;7.07;;
34876;SDS011;21086;44.780;17.194;2024-02-21T03:16:31;12.73;;;6.30;;
34876;SDS011;21086;44.780;17.194;2024-02-21T03:18:58;10.43;;;6.13;;
34876;SDS011;21086;44.780;17.194;2024-02-21T03:21:25;10.23;;;5.95;;
34876;SDS011;21086;44.780;17.194;2024-02-21T03:23:52;13.40;;;6.68;;
34876;SDS011;21086;44.780;17.194;2024-02-21T03:26:19;10.13;;;5.65;;
34876;SDS011;21086;44.780;17.194;2024-02-21T03:28:46;9.40;;;5.78;;
34876;SDS011;21086;44.780;17.194;2024-02-21T03:31:13;9.70;;;5.80;;
34876;SDS011;21086;44.780;17.194;2024-02-21T03:33:41;8.63;;;5.85;;
34876;SDS011;21086;44.780;17.194;2024-02-21T03:36:13;12.20;;;6.68;;
34876;SDS011;21086;44.780;17.194;2024-02-21T03:38:41;10.82;;;6.03;;
34876;SDS011;21086;44.780;17.194;2024-02-21T03:41:08;9.82;;;5.63;;
34876;SDS011;21086;44.780;17.194;2024-02-21T03:43:37;9.98;;;5.20;;
34876;SDS011;21086;44.780;17.194;2024-02-21T03:46:04;10.05;;;5.35;;
34876;SDS011;21086;44.780;17.194;2024-02-21T03:48:33;9.02;;;5.85;;
34876;SDS011;21086;44.780;17.194;2024-02-21T03:51:00;11.63;;;5.55;;
34876;SDS011;21086;44.780;17.194;2024-02-21T03:53:26;8.50;;;4.82;;
34876;SDS011;21086;44.780;17.194;2024-02-21T03:55:55;9.90;;;5.30;;
34876;SDS011;21086;44.780;17.194;2024-02-21T03:58:22;10.63;;;4.90;;
34876;SDS011;21086;44.780;17.194;2024-02-21T04:00:49;11.32;;;6.55;;
34876;SDS011;21086;44.780;17.194;2024-02-21T04:03:16;11.02;;;5.13;;
34876;SDS011;21086;44.780;17.194;2024-02-21T04:05:43;9.52;;;5.07;;
34876;SDS011;21086;44.780;17.194;2024-02-21T04:08:11;10.32;;;5.80;;
34876;SDS011;21086;44.780;17.194;2024-02-21T04:10:38;12.30;;;6.28;;
34876;SDS011;21086;44.780;17.194;2024-02-21T04:13:06;12.10;;;6.70;;
34876;SDS011;21086;44.780;17.194;2024-02-21T04:15:33;13.55;;;7.78;;
34876;SDS011;21086;44.780;17.194;2024-02-21T04:18:00;11.60;;;7.35;;
34876;SDS011;21086;44.780;17.194;2024-02-21T04:20:27;9.75;;;6.30;;
34876;SDS011;21086;44.780;17.194;2024-02-21T04:22:55;12.52;;;7.75;;
34876;SDS011;21086;44.780;17.194;2024-02-21T04:25:23;16.92;;;7.93;;
34876;SDS011;21086;44.780;17.194;2024-02-21T04:27:50;11.25;;;6.72;;
34876;SDS011;21086;44.780;17.194;2024-02-21T04:30:17;10.82;;;5.43;;
34876;SDS011;21086;44.780;17.194;2024-02-21T04:32:44;9.10;;;5.55;;
34876;SDS011;21086;44.780;17.194;2024-02-21T04:35:11;12.18;;;6.15;;
34876;SDS011;21086;44.780;17.194;2024-02-21T04:37:38;9.20;;;5.88;;
34876;SDS011;21086;44.780;17.194;2024-02-21T04:40:05;11.93;;;6.63;;
34876;SDS011;21086;44.780;17.194;2024-02-21T04:42:33;13.32;;;7.43;;
34876;SDS011;21086;44.780;17.194;2024-02-21T04:45:00;12.50;;;7.57;;
34876;SDS011;21086;44.780;17.194;2024-02-21T04:47:27;11.35;;;6.55;;
34876;SDS011;21086;44.780;17.194;2024-02-21T04:49:54;11.35;;;6.38;;
34876;SDS011;21086;44.780;17.194;2024-02-21T04:52:22;13.73;;;7.70;;
34876;SDS011;21086;44.780;17.194;2024-02-21T04:54:49;14.00;;;8.30;;
34876;SDS011;21086;44.780;17.194;2024-02-21T04:57:19;19.02;;;10.65;;
34876;SDS011;21086;44.780;17.194;2024-02-21T04:59:46;14.70;;;9.43;;
34876;SDS011;21086;44.780;17.194;2024-02-21T05:02:16;15.15;;;8.80;;
34876;SDS011;21086;44.780;17.194;2024-02-21T05:04:43;14.88;;;9.30;;
34876;SDS011;21086;44.780;17.194;2024-02-21T05:07:10;16.60;;;9.32;;
34876;SDS011;21086;44.780;17.194;2024-02-21T05:09:38;21.23;;;11.70;;
34876;SDS011;21086;44.780;17.194;2024-02-21T05:12:05;20.52;;;11.00;;
34876;SDS011;21086;44.780;17.194;2024-02-21T05:14:32;15.55;;;9.55;;
34876;SDS011;21086;44.780;17.194;2024-02-21T05:16:59;13.98;;;8.45;;
34876;SDS011;21086;44.780;17.194;2024-02-21T05:19:26;19.77;;;9.85;;
34876;SDS011;21086;44.780;17.194;2024-02-21T05:21:53;12.80;;;7.82;;
34876;SDS011;21086;44.780;17.194;2024-02-21T05:24:20;12.98;;;8.23;;
34876;SDS011;21086;44.780;17.194;2024-02-21T05:26:47;15.65;;;8.45;;
34876;SDS011;21086;44.780;17.194;2024-02-21T05:29:14;15.85;;;9.38;;
34876;SDS011;21086;44.780;17.194;2024-02-21T05:34:20;16.60;;;9.93;;
34876;SDS011;21086;44.780;17.194;2024-02-21T05:36:48;20.73;;;9.48;;
34876;SDS011;21086;44.780;17.194;2024-02-21T05:39:18;15.02;;;9.98;;
34876;SDS011;21086;44.780;17.194;2024-02-21T05:41:45;19.63;;;9.77;;
34876;SDS011;21086;44.780;17.194;2024-02-21T05:44:12;17.88;;;9.80;;
34876;SDS011;21086;44.780;17.194;2024-02-21T05:46:39;15.85;;;9.70;;
34876;SDS011;21086;44.780;17.194;2024-02-21T05:49:06;17.63;;;11.73;;
34876;SDS011;21086;44.780;17.194;2024-02-21T05:51:34;15.80;;;10.13;;
34876;SDS011;21086;44.780;17.194;2024-02-21T05:54:01;15.52;;;9.35;;
34876;SDS011;21086;44.780;17.194;2024-02-21T05:56:28;14.13;;;9.45;;
34876;SDS011;21086;44.780;17.194;2024-02-21T05:58:55;30.05;;;15.50;;
34876;SDS011;21086;44.780;17.194;2024-02-21T06:01:23;16.67;;;9.20;;
34876;SDS011;21086;44.780;17.194;2024-02-21T06:03:50;14.95;;;8.68;;
34876;SDS011;21086;44.780;17.194;2024-02-21T06:06:18;16.42;;;9.50;;
34876;SDS011;21086;44.780;17.194;2024-02-21T06:08:45;13.50;;;8.82;;
34876;SDS011;21086;44.780;17.194;2024-02-21T06:11:12;17.67;;;9.40;;
34876;SDS011;21086;44.780;17.194;2024-02-21T06:13:40;15.05;;;9.50;;
34876;SDS011;21086;44.780;17.194;2024-02-21T06:16:07;14.15;;;8.77;;
34876;SDS011;21086;44.780;17.194;2024-02-21T06:18:35;14.73;;;8.40;;
34876;SDS011;21086;44.780;17.194;2024-02-21T06:21:03;15.52;;;9.20;;
34876;SDS011;21086;44.780;17.194;2024-02-21T06:23:31;16.05;;;9.05;;
34876;SDS011;21086;44.780;17.194;2024-02-21T06:25:58;16.80;;;12.35;;
34876;SDS011;21086;44.780;17.194;2024-02-21T06:28:25;18.35;;;12.05;;
34876;SDS011;21086;44.780;17.194;2024-02-21T06:30:53;13.95;;;9.88;;
34876;SDS011;21086;44.780;17.194;2024-02-21T06:33:20;18.13;;;10.10;;
34876;SDS011;21086;44.780;17.194;2024-02-21T06:35:51;13.35;;;9.73;;
34876;SDS011;21086;44.780;17.194;2024-02-21T06:38:19;19.65;;;10.65;;
34876;SDS011;21086;44.780;17.194;2024-02-21T06:40:47;19.30;;;9.82;;
34876;SDS011;21086;44.780;17.194;2024-02-21T06:43:17;20.58;;;10.15;;
34876;SDS011;21086;44.780;17.194;2024-02-21T06:45:45;13.93;;;8.73;;
34876;SDS011;21086;44.780;17.194;2024-02-21T06:48:17;16.00;;;8.57;;
34876;SDS011;21086;44.780;17.194;2024-02-21T06:50:46;15.38;;;9.27;;
34876;SDS011;21086;44.780;17.194;2024-02-21T06:53:13;16.20;;;8.88;;
34876;SDS011;21086;44.780;17.194;2024-02-21T06:55:40;16.73;;;9.98;;
34876;SDS011;21086;44.780;17.194;2024-02-21T06:58:07;18.50;;;11.02;;
34876;SDS011;21086;44.780;17.194;2024-02-21T07:00:38;16.50;;;9.65;;
34876;SDS011;21086;44.780;17.194;2024-02-21T07:03:06;12.98;;;7.45;;
34876;SDS011;21086;44.780;17.194;2024-02-21T07:05:33;13.55;;;8.60;;
34876;SDS011;21086;44.780;17.194;2024-02-21T07:08:01;18.10;;;10.57;;
34876;SDS011;21086;44.780;17.194;2024-02-21T07:10:29;17.38;;;10.95;;
34876;SDS011;21086;44.780;17.194;2024-02-21T07:12:56;21.20;;;11.02;;
34876;SDS011;21086;44.780;17.194;2024-02-21T07:15:23;14.23;;;10.25;;
34876;SDS011;21086;44.780;17.194;2024-02-21T07:17:53;15.73;;;9.68;;
34876;SDS011;21086;44.780;17.194;2024-02-21T07:20:20;17.45;;;9.25;;
34876;SDS011;21086;44.780;17.194;2024-02-21T07:22:47;12.32;;;8.15;;
34876;SDS011;21086;44.780;17.194;2024-02-21T07:25:14;14.00;;;6.15;;
34876;SDS011;21086;44.780;17.194;2024-02-21T07:27:42;8.98;;;5.68;;
34876;SDS011;21086;44.780;17.194;2024-02-21T07:30:10;8.27;;;5.45;;
34876;SDS011;21086;44.780;17.194;2024-02-21T07:32:41;7.35;;;4.80;;
34876;SDS011;21086;44.780;17.194;2024-02-21T07:35:08;8.98;;;5.97;;
34876;SDS011;21086;44.780;17.194;2024-02-21T07:37:39;9.60;;;6.28;;
34876;SDS011;21086;44.780;17.194;2024-02-21T07:40:06;9.85;;;6.15;;
34876;SDS011;21086;44.780;17.194;2024-02-21T07:42:38;11.88;;;6.60;;
34876;SDS011;21086;44.780;17.194;2024-02-21T07:45:06;11.57;;;5.97;;
34876;SDS011;21086;44.780;17.194;2024-02-21T07:47:34;14.82;;;8.07;;
34876;SDS011;21086;44.780;17.194;2024-02-21T07:50:01;37.10;;;19.17;;
34876;SDS011;21086;44.780;17.194;2024-02-21T07:52:29;16.95;;;8.13;;
34876;SDS011;21086;44.780;17.194;2024-02-21T07:54:56;12.40;;;7.25;;
34876;SDS011;21086;44.780;17.194;2024-02-21T07:57:23;11.30;;;6.57;;
34876;SDS011;21086;44.780;17.194;2024-02-21T07:59:50;9.23;;;5.72;;
34876;SDS011;21086;44.780;17.194;2024-02-21T08:02:17;8.88;;;4.93;;
34876;SDS011;21086;44.780;17.194;2024-02-21T08:04:44;11.52;;;5.43;;
34876;SDS011;21086;44.780;17.194;2024-02-21T08:07:11;11.20;;;5.72;;
34876;SDS011;21086;44.780;17.194;2024-02-21T08:09:39;11.00;;;5.22;;
34876;SDS011;21086;44.780;17.194;2024-02-21T08:12:06;11.25;;;5.15;;
34876;SDS011;21086;44.780;17.194;2024-02-21T08:14:33;9.82;;;5.35;;
34876;SDS011;21086;44.780;17.194;2024-02-21T08:17:00;9.68;;;5.57;;
34876;SDS011;21086;44.780;17.194;2024-02-21T08:19:28;14.18;;;6.65;;
34876;SDS011;21086;44.780;17.194;2024-02-21T08:21:55;11.07;;;6.28;;
34876;SDS011;21086;44.780;17.194;2024-02-21T08:24:22;8.63;;;4.53;;
34876;SDS011;21086;44.780;17.194;2024-02-21T08:26:49;7.85;;;4.82;;
34876;SDS011;21086;44.780;17.194;2024-02-21T08:29:19;7.55;;;5.03;;
34876;SDS011;21086;44.780;17.194;2024-02-21T08:31:46;10.60;;;5.22;;
34876;SDS011;21086;44.780;17.194;2024-02-21T08:34:13;9.25;;;5.57;;
34876;SDS011;21086;44.780;17.194;2024-02-21T08:36:41;8.45;;;5.60;;
34876;SDS011;21086;44.780;17.194;2024-02-21T08:39:09;9.38;;;5.43;;
34876;SDS011;21086;44.780;17.194;2024-02-21T08:41:36;12.82;;;5.70;;
34876;SDS011;21086;44.780;17.194;2024-02-21T08:44:22;9.63;;;5.50;;
34876;SDS011;21086;44.780;17.194;2024-02-21T08:46:54;10.60;;;5.60;;
34876;SDS011;21086;44.780;17.194;2024-02-21T08:49:23;7.25;;;4.60;;
34876;SDS011;21086;44.780;17.194;2024-02-21T08:51:57;7.45;;;4.57;;
34876;SDS011;21086;44.780;17.194;2024-02-21T08:54:24;8.63;;;3.67;;
34876;SDS011;21086;44.780;17.194;2024-02-21T08:56:52;11.07;;;4.38;;
34876;SDS011;21086;44.780;17.194;2024-02-21T08:59:26;6.15;;;3.60;;
34876;SDS011;21086;44.780;17.194;2024-02-21T09:01:54;8.52;;;4.03;;
34876;SDS011;21086;44.780;17.194;2024-02-21T09:04:21;5.78;;;3.45;;
34876;SDS011;21086;44.780;17.194;2024-02-21T09:06:48;9.38;;;3.53;;
34876;SDS011;21086;44.780;17.194;2024-02-21T09:09:15;6.95;;;3.30;;
34876;SDS011;21086;44.780;17.194;2024-02-21T09:11:43;5.93;;;2.92;;
34876;SDS011;21086;44.780;17.194;2024-02-21T09:14:10;5.97;;;2.72;;
34876;SDS011;21086;44.780;17.194;2024-02-21T09:16:38;8.32;;;2.30;;
34876;SDS011;21086;44.780;17.194;2024-02-21T09:19:05;4.20;;;2.28;;
34876;SDS011;21086;44.780;17.194;2024-02-21T09:21:32;5.30;;;1.95;;
34876;SDS011;21086;44.780;17.194;2024-02-21T09:23:59;3.60;;;1.70;;
34876;SDS011;21086;44.780;17.194;2024-02-21T09:26:26;5.28;;;2.10;;
34876;SDS011;21086;44.780;17.194;2024-02-21T09:28:54;6.50;;;2.10;;
34876;SDS011;21086;44.780;17.194;2024-02-21T09:31:21;7.78;;;3.20;;
34876;SDS011;21086;44.780;17.194;2024-02-21T09:33:48;5.00;;;1.83;;
34876;SDS011;21086;44.780;17.194;2024-02-21T09:36:15;5.00;;;1.80;;
34876;SDS011;21086;44.780;17.194;2024-02-21T09:38:42;6.00;;;1.92;;
34876;SDS011;21086;44.780;17.194;2024-02-21T09:41:16;5.45;;;1.88;;
34876;SDS011;21086;44.780;17.194;2024-02-21T09:43:51;3.92;;;1.98;;
34876;SDS011;21086;44.780;17.194;2024-02-21T09:46:22;4.78;;;2.28;;
34876;SDS011;21086;44.780;17.194;2024-02-21T09:49:10;6.47;;;2.42;;
34876;SDS011;21086;44.780;17.194;2024-02-21T09:51:44;4.93;;;2.05;;
34876;SDS011;21086;44.780;17.194;2024-02-21T09:54:13;6.10;;;2.30;;
34876;SDS011;21086;44.780;17.194;2024-02-21T09:56:44;5.60;;;2.10;;
34876;SDS011;21086;44.780;17.194;2024-02-21T09:59:16;6.55;;;2.03;;
34876;SDS011;21086;44.780;17.194;2024-02-21T10:01:43;7.35;;;2.03;;
34876;SDS011;21086;44.780;17.194;2024-02-21T10:04:11;4.82;;;1.90;;
34876;SDS011;21086;44.780;17.194;2024-02-21T10:06:38;7.65;;;1.50;;
34876;SDS011;21086;44.780;17.194;2024-02-21T10:09:06;4.25;;;1.55;;
34876;SDS011;21086;44.780;17.194;2024-02-21T10:11:34;6.68;;;1.85;;
34876;SDS011;21086;44.780;17.194;2024-02-21T10:14:06;2.88;;;1.25;;
34876;SDS011;21086;44.780;17.194;2024-02-21T10:16:34;3.70;;;1.58;;
34876;SDS011;21086;44.780;17.194;2024-02-21T10:19:01;13.18;;;7.18;;
34876;SDS011;21086;44.780;17.194;2024-02-21T10:21:30;5.15;;;2.30;;
34876;SDS011;21086;44.780;17.194;2024-02-21T10:23:57;4.78;;;1.50;;
34876;SDS011;21086;44.780;17.194;2024-02-21T10:26:24;5.20;;;1.80;;
34876;SDS011;21086;44.780;17.194;2024-02-21T10:28:51;7.88;;;2.47;;
34876;SDS011;21086;44.780;17.194;2024-02-21T10:31:21;5.38;;;2.00;;
34876;SDS011;21086;44.780;17.194;2024-02-21T10:33:57;6.82;;;1.83;;
34876;SDS011;21086;44.780;17.194;2024-02-21T10:36:32;8.70;;;2.60;;
34876;SDS011;21086;44.780;17.194;2024-02-21T10:38:59;6.13;;;1.83;;
34876;SDS011;21086;44.780;17.194;2024-02-21T10:41:26;5.00;;;1.70;;
34876;SDS011;21086;44.780;17.194;2024-02-21T10:43:55;5.75;;;2.05;;
34876;SDS011;21086;44.780;17.194;2024-02-21T10:46:23;5.43;;;1.92;;
34876;SDS011;21086;44.780;17.194;2024-02-21T10:49:06;4.45;;;1.70;;
34876;SDS011;21086;44.780;17.194;2024-02-21T10:51:43;3.75;;;1.48;;
34876;SDS011;21086;44.780;17.194;2024-02-21T10:54:24;5.95;;;2.00;;
34876;SDS011;21086;44.780;17.194;2024-02-21T10:57:02;6.47;;;2.05;;
34876;SDS011;21086;44.780;17.194;2024-02-21T10:59:30;4.93;;;2.53;;
34876;SDS011;21086;44.780;17.194;2024-02-21T11:01:59;9.10;;;1.90;;
34876;SDS011;21086;44.780;17.194;2024-02-21T11:04:27;7.28;;;2.47;;
34876;SDS011;21086;44.780;17.194;2024-02-21T11:06:55;5.20;;;2.05;;
34876;SDS011;21086;44.780;17.194;2024-02-21T11:09:32;4.80;;;1.70;;
34876;SDS011;21086;44.780;17.194;2024-02-21T11:12:06;3.20;;;1.70;;
34876;SDS011;21086;44.780;17.194;2024-02-21T11:14:37;5.03;;;2.05;;
34876;SDS011;21086;44.780;17.194;2024-02-21T11:17:15;4.70;;;1.50;;
34876;SDS011;21086;44.780;17.194;2024-02-21T11:19:46;3.80;;;2.03;;
34876;SDS011;21086;44.780;17.194;2024-02-21T11:22:16;5.95;;;1.75;;
34876;SDS011;21086;44.780;17.194;2024-02-21T11:24:46;5.57;;;2.00;;
34876;SDS011;21086;44.780;17.194;2024-02-21T11:27:14;4.57;;;1.88;;
34876;SDS011;21086;44.780;17.194;2024-02-21T11:29:42;3.90;;;1.67;;
34876;SDS011;21086;44.780;17.194;2024-02-21T11:32:10;3.72;;;1.58;;
34876;SDS011;21086;44.780;17.194;2024-02-21T11:34:38;4.63;;;2.10;;
34876;SDS011;21086;44.780;17.194;2024-02-21T11:37:14;5.50;;;1.50;;
34876;SDS011;21086;44.780;17.194;2024-02-21T11:39:44;4.93;;;2.13;;
34876;SDS011;21086;44.780;17.194;2024-02-21T11:42:12;3.85;;;1.40;;
34876;SDS011;21086;44.780;17.194;2024-02-21T11:44:39;4.03;;;1.67;;
34876;SDS011;21086;44.780;17.194;2024-02-21T11:47:09;4.03;;;1.40;;
34876;SDS011;21086;44.780;17.194;2024-02-21T11:49:44;5.72;;;2.53;;
34876;SDS011;21086;44.780;17.194;2024-02-21T11:52:12;7.03;;;2.00;;
34876;SDS011;21086;44.780;17.194;2024-02-21T11:54:42;4.97;;;1.80;;
34876;SDS011;21086;44.780;17.194;2024-02-21T11:57:09;4.30;;;2.55;;
34876;SDS011;21086;44.780;17.194;2024-02-21T11:59:39;4.82;;;1.80;;
34876;SDS011;21086;44.780;17.194;2024-02-21T12:02:07;4.05;;;1.88;;
34876;SDS011;21086;44.780;17.194;2024-02-21T12:04:35;4.43;;;1.50;;
34876;SDS011;21086;44.780;17.194;2024-02-21T12:07:03;4.63;;;1.73;;
34876;SDS011;21086;44.780;17.194;2024-02-21T12:09:31;6.32;;;2.17;;
34876;SDS011;21086;44.780;17.194;2024-02-21T12:12:04;5.20;;;1.95;;
34876;SDS011;21086;44.780;17.194;2024-02-21T12:14:33;8.13;;;3.03;;
34876;SDS011;21086;44.780;17.194;2024-02-21T12:17:04;7.15;;;2.67;;
34876;SDS011;21086;44.780;17.194;2024-02-21T12:19:32;5.95;;;2.55;;
34876;SDS011;21086;44.780;17.194;2024-02-21T12:22:01;5.45;;;1.50;;
34876;SDS011;21086;44.780;17.194;2024-02-21T12:24:32;3.53;;;1.40;;
34876;SDS011;21086;44.780;17.194;2024-02-21T12:26:59;2.97;;;1.23;;
34876;SDS011;21086;44.780;17.194;2024-02-21T12:29:30;2.85;;;1.15;;
34876;SDS011;21086;44.780;17.194;2024-02-21T12:31:57;3.05;;;1.00;;
34876;SDS011;21086;44.780;17.194;2024-02-21T12:34:24;3.10;;;1.10;;
34876;SDS011;21086;44.780;17.194;2024-02-21T12:37:09;3.75;;;1.40;;
34876;SDS011;21086;44.780;17.194;2024-02-21T12:39:38;1.90;;;0.98;;
34876;SDS011;21086;44.780;17.194;2024-02-21T12:42:05;3.50;;;1.25;;
34876;SDS011;21086;44.780;17.194;2024-02-21T12:44:32;20.15;;;8.10;;
34876;SDS011;21086;44.780;17.194;2024-02-21T12:47:00;3.42;;;1.40;;
34876;SDS011;21086;44.780;17.194;2024-02-21T12:49:27;5.13;;;1.42;;
34876;SDS011;21086;44.780;17.194;2024-02-21T12:51:56;2.97;;;1.50;;
34876;SDS011;21086;44.780;17.194;2024-02-21T12:54:23;2.90;;;1.00;;
34876;SDS011;21086;44.780;17.194;2024-02-21T12:56:50;6.78;;;1.23;;
34876;SDS011;21086;44.780;17.194;2024-02-21T12:59:17;2.25;;;1.20;;
34876;SDS011;21086;44.780;17.194;2024-02-21T13:01:44;2.05;;;1.10;;
34876;SDS011;21086;44.780;17.194;2024-02-21T13:04:11;3.63;;;1.38;;
34876;SDS011;21086;44.780;17.194;2024-02-21T13:06:38;2.53;;;1.00;;
34876;SDS011;21086;44.780;17.194;2024-02-21T13:09:05;4.57;;;1.00;;
34876;SDS011;21086;44.780;17.194;2024-02-21T13:11:34;2.22;;;0.77;;
34876;SDS011;21086;44.780;17.194;2024-02-21T13:14:01;4.47;;;1.75;;
34876;SDS011;21086;44.780;17.194;2024-02-21T13:16:29;2.60;;;1.65;;
34876;SDS011;21086;44.780;17.194;2024-02-21T13:18:56;3.50;;;1.67;;
34876;SDS011;21086;44.780;17.194;2024-02-21T13:21:23;2.97;;;1.60;;
34876;SDS011;21086;44.780;17.194;2024-02-21T13:23:50;3.95;;;1.38;;
34876;SDS011;21086;44.780;17.194;2024-02-21T13:26:17;3.22;;;1.25;;
34876;SDS011;21086;44.780;17.194;2024-02-21T13:28:45;2.63;;;0.88;;
34876;SDS011;21086;44.780;17.194;2024-02-21T13:31:12;3.47;;;1.30;;
34876;SDS011;21086;44.780;17.194;2024-02-21T13:33:39;1.90;;;1.00;;
34876;SDS011;21086;44.780;17.194;2024-02-21T13:36:06;3.65;;;1.48;;
34876;SDS011;21086;44.780;17.194;2024-02-21T13:38:33;5.15;;;1.73;;
34876;SDS011;21086;44.780;17.194;2024-02-21T13:41:00;4.82;;;1.30;;
34876;SDS011;21086;44.780;17.194;2024-02-21T13:43:27;3.53;;;1.27;;
34876;SDS011;21086;44.780;17.194;2024-02-21T13:45:58;2.10;;;1.20;;
34876;SDS011;21086;44.780;17.194;2024-02-21T13:48:26;4.22;;;2.28;;
34876;SDS011;21086;44.780;17.194;2024-02-21T13:50:56;3.65;;;2.28;;
34876;SDS011;21086;44.780;17.194;2024-02-21T13:53:24;4.40;;;1.42;;
34876;SDS011;21086;44.780;17.194;2024-02-21T13:55:50;1.95;;;1.23;;
34876;SDS011;21086;44.780;17.194;2024-02-21T13:58:18;3.97;;;2.20;;
34876;SDS011;21086;44.780;17.194;2024-02-21T14:00:45;6.45;;;3.08;;
34876;SDS011;21086;44.780;17.194;2024-02-21T14:03:12;5.72;;;2.70;;
34876;SDS011;21086;44.780;17.194;2024-02-21T14:05:39;7.53;;;2.65;;
34876;SDS011;21086;44.780;17.194;2024-02-21T14:08:08;4.00;;;2.65;;
34876;SDS011;21086;44.780;17.194;2024-02-21T14:10:36;4.53;;;2.13;;
34876;SDS011;21086;44.780;17.194;2024-02-21T14:13:04;2.67;;;1.48;;
34876;SDS011;21086;44.780;17.194;2024-02-21T14:15:31;4.40;;;1.60;;
34876;SDS011;21086;44.780;17.194;2024-02-21T14:17:58;3.22;;;2.00;;
34876;SDS011;21086;44.780;17.194;2024-02-21T14:20:25;6.85;;;3.58;;
34876;SDS011;21086;44.780;17.194;2024-02-21T14:22:53;7.30;;;2.95;;
34876;SDS011;21086;44.780;17.194;2024-02-21T14:25:20;7.32;;;4.82;;
34876;SDS011;21086;44.780;17.194;2024-02-21T14:27:49;7.20;;;2.95;;
34876;SDS011;21086;44.780;17.194;2024-02-21T14:30:18;5.15;;;3.33;;
34876;SDS011;21086;44.780;17.194;2024-02-21T14:32:45;4.20;;;2.35;;
34876;SDS011;21086;44.780;17.194;2024-02-21T14:35:12;3.08;;;2.00;;